Decoded Metar for KDMW (CARROLL CNTY REG in MD, USA) (IATA:DMW) | Meteo·Mobile Aviation Weather
aviador You're here:

KDMW Decoded Metar

CARROLL CNTY REG in MD, USA
Report Time2018-11-18 20:00:00
UTC Time2018-11-18 20:31:34
Flight Rules mvfr MVFR
Wind170° at 06 kt
W.Decomp.*RWY 16: 5.6 kt HW 2.2 kt RCW
W.Rank170° ranks 2
Current wind is below 170° avg. (6.5)
Visibility9999 m
Phenomena:N/A
Clouds:Overcast 025 Hf
Expected CloudBase > 2,800 ft AGL from Temp-Dew spread
Ceiling2,500 ft
Temp08°C (ISA -5)
Dew Point01°C (62% RH)
AAT4.0°C
QNH1023 hPa
Density Alt-105 ft
Elevation791 ft
Report Wrong Elevation
Raw Report
KDMW 182000Z AUTO 17006KT 10SM OVC025 08/01 A3022 RMK AO2=

Extra information for KDMW:More info

Metar Taf Metar & Taf Last 4 Metars F.Rules Stats Wind Profile Meteogram Temp Stats Airport Information Weather charts Add Link Nearby VenuesMetar ALERT Operation Metar Decoded Social comments

AIRNAV info for KDMW